Time;durP1;ratioP1;P1;durP2;ratioP2;P2;SDS_P1;SDS_P2;PMS_P1;PMS_P2;Temp;Humidity;BMP_temperature;BMP_pressure;BME280_temperature;BME280_humidity;BME280_pressure;Samples;Min_cycle;Max_cycle;Signal;HPM_P1;HPM_P2
2023/09/22 00:00:59;;;;;;;11.73;7.20;;;14.20;99.90;;;;;;4977176;28;20050;-79
2023/09/22 00:03:26;;;;;;;10.60;7.10;;;14.10;99.90;;;;;;4977787;28;20078;-79
2023/09/22 00:05:52;;;;;;;11.50;7.82;;;14.20;99.90;;;;;;4976232;28;20480;-79
2023/09/22 00:08:18;;;;;;;10.43;7.10;;;14.10;99.90;;;;;;4977402;28;20078;-80
2023/09/22 00:10:45;;;;;;;9.85;7.28;;;14.10;99.90;;;;;;4977282;28;20084;-79
2023/09/22 00:13:10;;;;;;;9.73;6.28;;;14.10;99.90;;;;;;4976677;28;20082;-80
2023/09/22 00:15:36;;;;;;;11.07;6.60;;;14.10;99.90;;;;;;4977964;28;20108;-80
2023/09/22 00:18:02;;;;;;;10.02;6.95;;;14.10;99.90;;;;;;4976339;28;20053;-80
2023/09/22 00:20:28;;;;;;;10.20;6.72;;;14.10;99.90;;;;;;4977352;28;20042;-80
2023/09/22 00:22:53;;;;;;;11.02;7.03;;;14.00;99.90;;;;;;4977189;28;20052;-80
2023/09/22 00:25:19;;;;;;;10.02;6.78;;;14.00;99.90;;;;;;4977067;28;20058;-80
2023/09/22 00:27:45;;;;;;;10.38;6.90;;;14.00;99.90;;;;;;4977717;28;20081;-80
2023/09/22 00:30:10;;;;;;;10.23;6.10;;;14.00;99.90;;;;;;4977126;28;20462;-80
2023/09/22 00:32:37;;;;;;;10.85;6.25;;;14.00;99.90;;;;;;4975964;28;20038;-80
2023/09/22 00:35:04;;;;;;;10.55;6.07;;;14.00;99.90;;;;;;4976993;28;20050;-80
2023/09/22 00:37:30;;;;;;;9.25;6.10;;;14.00;99.90;;;;;;4977505;28;20062;-79
2023/09/22 00:39:56;;;;;;;9.45;6.28;;;14.00;99.90;;;;;;4976266;28;20510;-80
2023/09/22 00:42:22;;;;;;;10.45;6.78;;;14.10;99.90;;;;;;4977034;28;20490;-80
2023/09/22 00:44:47;;;;;;;9.85;6.30;;;14.20;99.90;;;;;;4976173;28;20129;-80
2023/09/22 00:47:14;;;;;;;10.40;6.45;;;14.10;99.90;;;;;;4975857;28;20192;-80
2023/09/22 00:49:45;;;;;;;9.55;5.90;;;14.10;99.90;;;;;;4976855;28;20047;-80
2023/09/22 00:52:13;;;;;;;10.18;5.78;;;14.20;99.90;;;;;;4976475;28;20402;-80
2023/09/22 00:54:39;;;;;;;10.07;6.32;;;14.10;99.90;;;;;;4976129;28;20628;-78
2023/09/22 00:57:05;;;;;;;11.40;6.88;;;14.10;99.90;;;;;;4976190;28;20077;-80
2023/09/22 00:59:33;;;;;;;8.18;5.45;;;14.10;99.90;;;;;;4976869;28;20061;-80
2023/09/22 01:01:59;;;;;;;11.23;6.93;;;14.20;99.90;;;;;;4975194;28;20053;-80
2023/09/22 01:04:26;;;;;;;9.07;6.18;;;14.10;99.90;;;;;;4976429;28;20047;-80
2023/09/22 01:06:51;;;;;;;9.48;6.25;;;14.10;99.90;;;;;;4976248;28;20157;-80
2023/09/22 01:09:17;;;;;;;10.18;6.85;;;14.10;99.90;;;;;;4975648;28;20541;-80
2023/09/22 01:11:44;;;;;;;9.75;6.03;;;14.00;99.90;;;;;;4976049;28;20042;-80
2023/09/22 01:14:10;;;;;;;8.55;5.72;;;13.90;99.90;;;;;;4975581;28;20051;-80
2023/09/22 01:16:36;;;;;;;10.27;6.20;;;13.90;99.90;;;;;;4975950;28;20049;-80
2023/09/22 01:19:01;;;;;;;11.82;7.45;;;13.80;99.90;;;;;;4975847;28;20039;-80
2023/09/22 01:21:29;;;;;;;10.98;7.32;;;13.80;99.90;;;;;;4992306;28;20161;-80
2023/09/22 01:23:54;;;;;;;10.60;7.18;;;13.80;99.90;;;;;;4993321;28;20478;-80
2023/09/22 01:26:23;;;;;;;10.40;6.70;;;13.70;99.90;;;;;;4975702;28;20050;-80
2023/09/22 01:28:49;;;;;;;11.27;7.22;;;13.70;99.90;;;;;;4974897;28;20153;-80
2023/09/22 01:31:15;;;;;;;14.15;7.78;;;13.60;99.90;;;;;;4975910;28;20197;-80
2023/09/22 01:33:41;;;;;;;13.70;7.85;;;13.60;99.90;;;;;;4976148;28;20125;-80
2023/09/22 01:36:06;;;;;;;12.98;7.53;;;13.60;99.90;;;;;;4975118;28;20134;-80
2023/09/22 01:38:32;;;;;;;11.38;7.25;;;13.60;99.90;;;;;;4976249;28;20050;-80
2023/09/22 01:40:58;;;;;;;16.65;8.18;;;13.50;99.90;;;;;;4975756;28;20034;-80
2023/09/22 01:43:24;;;;;;;13.57;8.00;;;13.50;99.90;;;;;;4975486;28;20548;-80
2023/09/22 01:45:50;;;;;;;13.70;8.23;;;13.50;99.90;;;;;;4975863;28;20386;-80
2023/09/22 01:48:15;;;;;;;14.30;8.20;;;13.40;99.90;;;;;;4976125;28;20492;-80
2023/09/22 01:50:41;;;;;;;11.40;7.22;;;13.40;99.90;;;;;;4974939;28;20042;-79
2023/09/22 01:53:10;;;;;;;13.55;7.93;;;13.30;99.90;;;;;;4975894;28;20058;-80
2023/09/22 01:55:37;;;;;;;11.85;7.60;;;13.30;99.90;;;;;;4975313;28;20051;-80
2023/09/22 01:58:07;;;;;;;10.70;6.78;;;13.20;99.90;;;;;;4974502;28;20042;-80
2023/09/22 02:00:33;;;;;;;9.65;6.28;;;13.20;99.90;;;;;;4975981;28;20126;-80
2023/09/22 02:02:59;;;;;;;11.18;6.30;;;13.20;99.90;;;;;;4993210;28;20121;-80
2023/09/22 02:05:25;;;;;;;10.05;6.50;;;13.20;99.90;;;;;;4975023;28;20617;-80
2023/09/22 02:07:50;;;;;;;11.57;6.15;;;13.20;99.90;;;;;;4975042;28;20086;-80
2023/09/22 02:10:16;;;;;;;10.35;6.50;;;13.10;99.90;;;;;;4975766;28;20061;-79
2023/09/22 02:12:46;;;;;;;10.52;7.03;;;13.10;99.90;;;;;;4975214;28;20402;-79
2023/09/22 02:15:13;;;;;;;13.60;7.15;;;13.00;99.90;;;;;;4975177;28;20042;-80
2023/09/22 02:17:40;;;;;;;26.77;8.20;;;12.90;99.90;;;;;;4975297;28;20053;-80
2023/09/22 02:20:25;;;;;;;12.90;7.57;;;13.00;99.90;;;;;;4975751;28;20043;-80
2023/09/22 02:22:53;;;;;;;13.25;7.28;;;12.90;99.90;;;;;;4992608;28;20046;-79
2023/09/22 02:25:19;;;;;;;13.00;7.60;;;12.80;99.90;;;;;;4974099;28;20401;-79
2023/09/22 02:27:52;;;;;;;34.03;8.10;;;12.80;99.90;;;;;;4975520;28;20181;-79
2023/09/22 02:30:18;;;;;;;23.90;7.68;;;12.80;99.90;;;;;;4975865;28;20061;-79
2023/09/22 02:32:48;;;;;;;34.63;6.70;;;12.70;99.90;;;;;;4976804;28;20478;-79
2023/09/22 02:35:23;;;;;;;20.85;6.07;;;12.70;99.90;;;;;;4978959;28;20048;-79
2023/09/22 02:37:49;;;;;;;57.28;6.82;;;12.70;99.90;;;;;;4979172;28;20065;-79
2023/09/22 02:40:15;;;;;;;56.92;6.78;;;12.70;99.90;;;;;;4978726;28;20046;-79
2023/09/22 02:42:43;;;;;;;57.03;6.57;;;12.60;99.90;;;;;;4979063;28;20125;-79
2023/09/22 02:45:09;;;;;;;83.03;7.13;;;12.70;99.90;;;;;;4979224;28;20401;-79
2023/09/22 02:47:40;;;;;;;134.63;9.05;;;12.70;99.90;;;;;;4995411;28;20046;-79
2023/09/22 02:50:10;;;;;;;92.68;7.35;;;12.60;99.90;;;;;;4977899;28;20104;-79
2023/09/22 02:52:38;;;;;;;50.00;5.95;;;12.60;99.90;;;;;;4977531;28;20078;-79
2023/09/22 02:55:05;;;;;;;44.88;6.40;;;12.50;99.90;;;;;;4978721;28;20657;-79
2023/09/22 02:57:31;;;;;;;21.52;5.03;;;12.40;99.90;;;;;;4979103;28;20077;-79
2023/09/22 02:59:56;;;;;;;7.65;4.65;;;12.40;99.90;;;;;;4977937;28;20526;-79
2023/09/22 03:02:22;;;;;;;8.82;4.38;;;12.40;99.90;;;;;;4978812;28;20042;-79
2023/09/22 03:04:47;;;;;;;6.57;3.80;;;12.40;99.90;;;;;;4978553;28;20086;-79
2023/09/22 03:07:13;;;;;;;7.15;4.10;;;12.30;99.90;;;;;;4977900;28;20062;-79
2023/09/22 03:09:39;;;;;;;7.15;3.90;;;12.30;99.90;;;;;;4996267;28;20058;-79
2023/09/22 03:12:05;;;;;;;5.97;3.88;;;12.40;99.90;;;;;;4978429;28;20077;-78
2023/09/22 03:14:30;;;;;;;5.50;3.67;;;12.40;99.90;;;;;;4995651;28;20121;-79
2023/09/22 03:16:57;;;;;;;6.13;3.15;;;12.40;99.90;;;;;;4995540;28;20505;-79
2023/09/22 03:19:23;;;;;;;6.30;3.13;;;12.40;99.90;;;;;;4995937;28;20081;-79
2023/09/22 03:21:49;;;;;;;4.35;2.90;;;12.40;99.90;;;;;;4976804;28;20522;-79
2023/09/22 03:24:14;;;;;;;4.80;3.20;;;12.30;99.90;;;;;;4978579;28;20046;-79
2023/09/22 03:26:40;;;;;;;4.38;2.78;;;12.30;99.90;;;;;;4978308;28;20054;-79
2023/09/22 03:29:06;;;;;;;4.40;2.85;;;12.20;99.90;;;;;;4977448;28;20185;-78
2023/09/22 03:31:31;;;;;;;5.97;3.17;;;12.20;99.90;;;;;;4978157;28;20070;-79
2023/09/22 03:33:57;;;;;;;5.85;3.33;;;12.20;99.90;;;;;;4977716;28;20053;-78
2023/09/22 03:36:24;;;;;;;4.65;3.33;;;12.20;99.90;;;;;;4977499;28;20043;-79
2023/09/22 03:38:51;;;;;;;5.68;3.22;;;12.10;99.90;;;;;;4977647;28;20125;-78
2023/09/22 03:41:18;;;;;;;6.82;3.30;;;12.20;99.90;;;;;;4977126;28;20034;-79
2023/09/22 03:43:45;;;;;;;6.28;3.72;;;12.10;99.90;;;;;;4974762;28;20046;-79
2023/09/22 03:46:11;;;;;;;7.03;4.15;;;12.10;99.90;;;;;;4977848;28;20138;-79
2023/09/22 03:48:37;;;;;;;7.03;4.57;;;12.10;99.90;;;;;;4978224;28;20137;-79
2023/09/22 03:51:04;;;;;;;7.90;5.00;;;12.10;99.90;;;;;;4977039;28;20086;-79
2023/09/22 03:53:30;;;;;;;8.80;4.88;;;12.00;99.90;;;;;;4977372;28;20441;-79
2023/09/22 03:55:55;;;;;;;8.75;4.60;;;12.00;99.90;;;;;;4973525;28;20055;-78
2023/09/22 03:58:21;;;;;;;8.15;5.45;;;12.00;99.90;;;;;;4974986;28;20390;-79
2023/09/22 04:00:47;;;;;;;6.25;4.80;;;12.10;99.90;;;;;;4974227;28;20101;-79
2023/09/22 04:03:13;;;;;;;7.22;5.32;;;12.20;99.90;;;;;;4973272;28;20101;-78
2023/09/22 04:05:40;;;;;;;10.45;7.15;;;12.30;99.90;;;;;;4974307;28;20043;-78
2023/09/22 04:08:05;;;;;;;10.25;6.63;;;12.40;99.90;;;;;;4973439;28;20133;-78
2023/09/22 04:10:32;;;;;;;8.75;6.13;;;12.50;99.90;;;;;;4989769;28;20122;-78
2023/09/22 04:12:58;;;;;;;9.52;7.05;;;12.60;99.90;;;;;;4971621;28;20039;-78
2023/09/22 04:15:23;;;;;;;12.43;7.88;;;12.70;99.90;;;;;;4975105;28;20050;-78
2023/09/22 04:17:51;;;;;;;14.18;7.75;;;12.70;99.90;;;;;;4971018;28;20043;-78
2023/09/22 04:20:26;;;;;;;14.20;8.48;;;12.80;99.90;;;;;;4974009;28;20475;-77
2023/09/22 04:22:53;;;;;;;15.13;9.00;;;12.80;99.90;;;;;;4973347;28;20487;-78
2023/09/22 04:25:19;;;;;;;13.43;9.10;;;12.90;99.90;;;;;;4974884;28;20325;-78
2023/09/22 04:27:53;;;;;;;16.55;9.30;;;12.90;99.90;;;;;;4975481;28;20047;-78
2023/09/22 04:30:20;;;;;;;14.48;9.18;;;12.80;99.90;;;;;;4974165;28;20046;-78
2023/09/22 04:32:47;;;;;;;13.63;8.57;;;12.90;99.90;;;;;;4972947;28;20110;-78
2023/09/22 04:35:13;;;;;;;13.35;8.82;;;13.00;99.90;;;;;;4973971;28;20050;-78
2023/09/22 04:37:40;;;;;;;13.43;7.93;;;12.90;99.90;;;;;;4973652;28;20101;-77
2023/09/22 04:40:28;;;;;;;15.10;8.65;;;13.00;99.90;;;;;;4957068;28;20054;-78
2023/09/22 04:42:54;;;;;;;16.30;8.00;;;13.00;99.90;;;;;;4967751;28;20062;-80
2023/09/22 04:45:21;;;;;;;14.98;7.72;;;12.90;99.90;;;;;;4972522;28;20050;-77
2023/09/22 04:47:47;;;;;;;15.82;8.75;;;13.10;99.90;;;;;;4973321;28;20090;-77
2023/09/22 04:50:17;;;;;;;16.27;8.38;;;13.00;99.90;;;;;;4973723;28;20542;-76
2023/09/22 04:52:44;;;;;;;17.17;9.05;;;13.10;99.90;;;;;;4967255;28;20102;-77
2023/09/22 04:55:10;;;;;;;12.77;7.68;;;13.00;99.90;;;;;;4972342;28;20066;-77
2023/09/22 04:57:38;;;;;;;13.98;7.30;;;13.00;99.90;;;;;;4972643;28;20046;-77
2023/09/22 05:00:12;;;;;;;12.30;7.40;;;13.10;99.90;;;;;;4972342;28;20413;-75
2023/09/22 05:02:38;;;;;;;14.05;7.28;;;13.00;99.90;;;;;;4972987;28;20055;-81
2023/09/22 05:05:04;;;;;;;12.45;7.50;;;13.10;99.90;;;;;;4971473;28;20058;-80
2023/09/22 05:07:30;;;;;;;12.52;7.60;;;12.90;99.90;;;;;;4972526;28;20047;-81
2023/09/22 05:09:55;;;;;;;15.20;7.57;;;13.00;99.90;;;;;;4972214;28;20043;-76
2023/09/22 05:12:21;;;;;;;18.40;8.48;;;13.00;99.90;;;;;;4973476;28;20066;-78
2023/09/22 05:14:47;;;;;;;11.50;7.07;;;12.90;99.90;;;;;;4972158;28;20043;-91
2023/09/22 05:17:13;;;;;;;13.32;7.90;;;12.90;99.90;;;;;;4973388;28;20050;-84
2023/09/22 05:19:39;;;;;;;16.65;7.55;;;12.90;99.90;;;;;;4974667;28;20454;-90
2023/09/22 05:22:05;;;;;;;15.00;8.65;;;12.90;99.90;;;;;;4971761;28;20050;-80
2023/09/22 05:24:31;;;;;;;12.98;8.25;;;12.90;99.90;;;;;;4972872;28;20074;-82
2023/09/22 05:26:57;;;;;;;13.52;8.43;;;12.90;99.90;;;;;;4972408;28;20061;-80
2023/09/22 05:29:22;;;;;;;14.32;7.85;;;12.90;99.90;;;;;;4956237;28;20630;-75
2023/09/22 05:31:48;;;;;;;19.30;9.60;;;12.90;99.90;;;;;;4964482;28;20051;-84
2023/09/22 05:34:14;;;;;;;14.90;8.75;;;13.00;99.90;;;;;;4964628;28;20043;-78
2023/09/22 05:36:41;;;;;;;16.27;8.95;;;13.00;99.90;;;;;;4971548;28;20047;-80
2023/09/22 05:39:16;;;;;;;15.95;8.75;;;13.00;99.90;;;;;;4971498;28;20047;-79
2023/09/22 05:41:47;;;;;;;18.23;9.82;;;13.10;99.90;;;;;;4969917;28;20113;-79
2023/09/22 05:44:13;;;;;;;18.92;9.85;;;13.10;99.90;;;;;;4971932;28;20065;-76
2023/09/22 05:46:39;;;;;;;17.90;10.07;;;13.10;99.90;;;;;;4971518;28;20126;-79
2023/09/22 05:49:06;;;;;;;17.25;10.02;;;13.10;99.90;;;;;;4971475;28;20402;-75
2023/09/22 05:51:32;;;;;;;15.90;9.70;;;13.10;99.90;;;;;;4972227;28;20046;-75
2023/09/22 05:53:58;;;;;;;15.07;8.80;;;13.20;99.90;;;;;;4970546;28;20631;-76
2023/09/22 05:56:25;;;;;;;17.05;9.57;;;13.50;99.90;;;;;;4967227;28;20418;-74
2023/09/22 05:58:51;;;;;;;16.40;8.98;;;13.30;99.90;;;;;;4969731;28;20043;-81
2023/09/22 06:01:22;;;;;;;13.82;9.60;;;13.40;99.90;;;;;;4969044;28;20042;-84
2023/09/22 06:03:50;;;;;;;17.10;9.23;;;15.00;99.90;;;;;;4968018;28;20384;-78
2023/09/22 06:06:16;;;;;;;17.30;10.60;;;13.40;99.90;;;;;;4968244;28;20038;-75
2023/09/22 06:08:44;;;;;;;19.73;10.68;;;13.50;99.90;;;;;;4969258;28;20455;-80
2023/09/22 06:11:11;;;;;;;17.77;10.43;;;13.50;99.90;;;;;;4970984;28;20057;-80
2023/09/22 06:13:38;;;;;;;17.02;8.95;;;13.50;99.90;;;;;;4972385;28;20054;-76
2023/09/22 06:16:04;;;;;;;18.77;10.75;;;13.50;99.90;;;;;;4972284;28;20058;-78
2023/09/22 06:18:31;;;;;;;22.20;11.75;;;13.70;99.90;;;;;;4971629;28;20055;-77
2023/09/22 06:20:58;;;;;;;18.85;10.82;;;13.60;99.90;;;;;;4972098;28;20054;-79
2023/09/22 06:23:24;;;;;;;17.88;11.55;;;13.70;99.90;;;;;;4971754;28;20096;-76
2023/09/22 06:25:59;;;;;;;22.42;11.98;;;13.90;99.90;;;;;;4970876;28;20108;-80
2023/09/22 06:28:25;;;;;;;21.88;11.23;;;13.60;99.90;;;;;;4971847;28;20063;-80
2023/09/22 06:30:52;;;;;;;22.58;12.77;;;13.50;99.90;;;;;;4971187;28;20093;-81
2023/09/22 06:33:18;;;;;;;19.65;11.48;;;13.40;99.90;;;;;;4987840;28;20047;-80
2023/09/22 06:35:58;;;;;;;23.80;12.95;;;13.40;99.90;;;;;;4972356;28;20043;-79
2023/09/22 06:38:24;;;;;;;22.98;13.18;;;13.40;99.90;;;;;;4971339;28;20186;-74
2023/09/22 06:40:54;;;;;;;21.52;13.55;;;13.40;99.90;;;;;;4971562;28;20134;-75
2023/09/22 06:43:23;;;;;;;19.20;12.23;;;13.40;99.90;;;;;;4970622;28;20212;-75
2023/09/22 06:45:51;;;;;;;21.63;12.95;;;13.60;99.90;;;;;;4970108;28;20049;-76
2023/09/22 06:48:27;;;;;;;23.58;14.07;;;13.60;99.90;;;;;;4972540;28;20380;-75
2023/09/22 06:50:57;;;;;;;21.95;12.55;;;13.70;99.90;;;;;;4971072;28;20042;-76
2023/09/22 06:53:28;;;;;;;25.00;14.27;;;13.80;99.90;;;;;;4970503;28;20498;-76
2023/09/22 06:56:06;;;;;;;22.70;11.32;;;13.90;99.90;;;;;;4982425;28;20144;-76
2023/09/22 06:58:34;;;;;;;24.75;13.95;;;14.20;99.90;;;;;;4973458;28;20133;-76
2023/09/22 07:01:09;;;;;;;25.23;14.27;;;14.20;99.90;;;;;;4972142;28;20042;-76
2023/09/22 07:03:34;;;;;;;30.00;15.82;;;14.20;99.90;;;;;;4973097;28;20042;-76
2023/09/22 07:06:01;;;;;;;25.17;16.08;;;14.20;99.90;;;;;;4971243;28;20401;-76
2023/09/22 07:08:29;;;;;;;26.83;15.82;;;14.30;99.90;;;;;;4967853;28;20046;-76
2023/09/22 07:11:03;;;;;;;25.77;14.93;;;14.20;99.90;;;;;;4973548;28;20046;-76
2023/09/22 07:13:29;;;;;;;27.10;15.50;;;14.30;99.90;;;;;;4974537;28;20051;-76
2023/09/22 07:15:57;;;;;;;23.90;15.60;;;14.30;99.90;;;;;;4974508;28;20110;-76
2023/09/22 07:18:26;;;;;;;26.50;15.60;;;14.40;99.90;;;;;;4975266;28;20073;-77
2023/09/22 07:20:55;;;;;;;25.30;14.93;;;14.60;99.90;;;;;;4977238;28;20046;-77
2023/09/22 07:23:22;;;;;;;24.63;14.88;;;14.80;99.90;;;;;;4995408;28;20077;-76
2023/09/22 07:26:04;;;;;;;23.65;15.00;;;14.80;99.90;;;;;;4978189;28;20046;-78
2023/09/22 07:28:30;;;;;;;21.50;12.95;;;15.00;99.90;;;;;;4977626;28;20056;-82
2023/09/22 07:30:56;;;;;;;20.05;12.02;;;15.30;99.90;;;;;;4978089;28;20069;-82
2023/09/22 07:33:32;;;;;;;19.42;13.18;;;15.60;99.90;;;;;;4978231;28;20474;-80
2023/09/22 07:35:59;;;;;;;17.50;12.77;;;16.30;99.90;;;;;;4976968;28;20050;-81
2023/09/22 07:38:26;;;;;;;15.68;11.13;;;17.10;99.90;;;;;;4978648;28;20149;-80
2023/09/22 07:40:52;;;;;;;13.15;9.95;;;17.40;99.90;;;;;;4977798;28;20058;-81
2023/09/22 07:43:18;;;;;;;14.48;9.80;;;17.40;99.90;;;;;;4977356;28;20069;-81
2023/09/22 07:45:44;;;;;;;13.88;8.85;;;17.30;99.90;;;;;;4977956;28;20042;-81
2023/09/22 07:48:11;;;;;;;8.90;6.07;;;17.10;99.90;;;;;;4977156;28;20056;-80
2023/09/22 07:50:39;;;;;;;9.35;6.15;;;16.80;99.90;;;;;;4977629;28;20046;-79
2023/09/22 07:53:07;;;;;;;9.27;6.28;;;16.40;99.90;;;;;;4994798;28;20529;-80
2023/09/22 07:55:33;;;;;;;9.93;6.32;;;16.30;99.90;;;;;;4977094;28;20046;-80
2023/09/22 07:57:58;;;;;;;8.05;6.07;;;15.80;99.90;;;;;;4977760;28;20056;-79
2023/09/22 08:00:26;;;;;;;8.82;6.18;;;15.70;99.90;;;;;;4995203;28;20049;-80
2023/09/22 08:02:52;;;;;;;13.63;6.82;;;15.60;99.90;;;;;;4976490;28;20069;-80
2023/09/22 08:05:18;;;;;;;12.73;8.27;;;15.70;99.90;;;;;;4995091;28;20046;-81
2023/09/22 08:07:49;;;;;;;15.68;8.70;;;15.90;99.90;;;;;;4978106;28;20502;-80
2023/09/22 08:10:15;;;;;;;12.82;8.85;;;16.90;99.90;;;;;;4977195;28;20405;-80
2023/09/22 08:12:42;;;;;;;11.13;8.15;;;17.70;99.90;;;;;;4977536;28;20188;-82
2023/09/22 08:15:11;;;;;;;12.07;6.60;;;18.10;99.90;;;;;;4994826;28;20112;-82
2023/09/22 08:17:37;;;;;;;10.68;6.40;;;18.00;99.90;;;;;;4976159;28;20037;-81
2023/09/22 08:20:07;;;;;;;8.48;4.65;;;17.80;99.90;;;;;;4977512;28;20061;-81
2023/09/22 08:22:32;;;;;;;6.28;3.83;;;18.20;99.90;;;;;;4977375;28;20093;-81
2023/09/22 08:24:58;;;;;;;4.90;3.55;;;19.10;99.90;;;;;;4976400;28;20054;-82
2023/09/22 08:27:24;;;;;;;7.43;4.30;;;19.70;99.90;;;;;;4977256;28;20453;-82
2023/09/22 08:29:50;;;;;;;7.43;4.40;;;20.50;99.90;;;;;;4976661;28;20084;-82
2023/09/22 08:32:16;;;;;;;6.68;3.88;;;20.90;99.90;;;;;;4976476;28;20076;-80
2023/09/22 08:34:42;;;;;;;6.43;4.15;;;21.60;99.90;;;;;;4994761;28;20042;-80
2023/09/22 08:37:11;;;;;;;5.72;3.60;;;21.80;99.90;;;;;;4976007;28;20168;-81
2023/09/22 08:39:36;;;;;;;5.50;3.50;;;22.30;99.90;;;;;;4994540;28;20046;-81
2023/09/22 08:42:02;;;;;;;5.30;3.63;;;23.00;99.90;;;;;;4976694;28;20046;-82
2023/09/22 08:44:29;;;;;;;5.50;3.30;;;23.30;99.90;;;;;;4976212;28;20042;-80
2023/09/22 08:46:57;;;;;;;6.28;3.28;;;23.40;99.90;;;;;;4975723;28;20049;-80
2023/09/22 08:49:22;;;;;;;5.95;3.22;;;23.30;99.90;;;;;;4976402;28;20049;-80
2023/09/22 08:51:48;;;;;;;5.32;3.60;;;22.90;99.80;;;;;;4976007;28;20038;-80
2023/09/22 08:54:14;;;;;;;5.18;3.22;;;23.30;99.20;;;;;;4977147;28;20050;-80
2023/09/22 08:56:40;;;;;;;5.65;3.53;;;23.00;99.50;;;;;;4976111;28;20170;-80
2023/09/22 08:59:09;;;;;;;6.70;3.50;;;22.30;99.90;;;;;;4975438;28;20057;-80
2023/09/22 09:01:37;;;;;;;4.88;3.03;;;21.70;99.90;;;;;;4976401;28;20042;-79
2023/09/22 09:04:30;;;;;;;4.82;2.80;;;20.80;99.90;;;;;;4976423;28;20073;-78
2023/09/22 09:06:56;;;;;;;5.40;3.40;;;20.00;99.90;;;;;;4975379;28;20053;-79
2023/09/22 09:09:21;;;;;;;4.97;3.25;;;19.90;99.90;;;;;;4976731;28;20047;-79
2023/09/22 09:12:01;;;;;;;4.85;3.33;;;20.20;99.90;;;;;;4976010;28;20042;-80
2023/09/22 09:14:29;;;;;;;4.70;3.28;;;20.20;99.90;;;;;;4975921;28;20096;-79
2023/09/22 09:16:58;;;;;;;6.85;3.15;;;19.70;99.90;;;;;;4976022;28;20046;-78
2023/09/22 09:19:26;;;;;;;4.78;3.20;;;19.10;99.90;;;;;;4975728;28;20139;-79
2023/09/22 09:22:05;;;;;;;5.80;3.60;;;18.70;99.90;;;;;;4975795;28;20125;-78
2023/09/22 09:24:32;;;;;;;5.50;3.90;;;18.40;99.90;;;;;;4976294;28;20065;-78
2023/09/22 09:26:58;;;;;;;6.75;3.75;;;17.90;99.90;;;;;;4975356;28;20042;-79
2023/09/22 09:29:31;;;;;;;5.70;3.58;;;17.60;99.90;;;;;;4976182;28;20604;-80
2023/09/22 09:32:00;;;;;;;5.97;3.70;;;17.10;99.90;;;;;;4975711;28;20505;-79
2023/09/22 09:34:41;;;;;;;6.88;3.65;;;16.80;99.90;;;;;;4975073;28;20057;-80
2023/09/22 09:37:14;;;;;;;5.93;3.75;;;16.80;99.90;;;;;;4972165;28;20442;-83
2023/09/22 09:39:49;;;;;;;5.22;3.10;;;18.00;99.90;;;;;;4973643;28;20054;-79
2023/09/22 09:42:19;;;;;;;5.55;2.40;;;18.30;99.90;;;;;;4968450;28;20441;-82
2023/09/22 09:44:50;;;;;;;4.03;2.90;;;18.20;99.90;;;;;;4976101;28;20557;-82
2023/09/22 09:47:27;;;;;;;4.10;2.60;;;18.00;99.90;;;;;;4975872;28;20042;-81
2023/09/22 09:49:57;;;;;;;4.13;2.50;;;18.80;99.90;;;;;;4973156;28;20126;-84
2023/09/22 09:52:42;;;;;;;4.28;2.50;;;19.40;99.90;;;;;;4993012;28;20054;-85
2023/09/22 09:55:13;;;;;;;5.10;2.40;;;18.90;99.90;;;;;;4974911;28;20055;-83
2023/09/22 09:57:43;;;;;;;5.18;2.08;;;18.50;99.90;;;;;;4993177;28;20042;-78
2023/09/22 10:00:20;;;;;;;3.15;1.90;;;18.20;99.90;;;;;;4992747;28;20057;-76
2023/09/22 10:02:48;;;;;;;5.35;2.13;;;17.90;99.90;;;;;;4974682;28;20051;-78
2023/09/22 10:05:18;;;;;;;4.70;1.77;;;18.20;99.90;;;;;;4975752;28;20038;-86
2023/09/22 10:07:46;;;;;;;3.53;2.13;;;19.40;99.90;;;;;;4976237;28;20574;-85
2023/09/22 10:10:13;;;;;;;3.33;2.10;;;20.00;99.90;;;;;;4974104;28;20378;-83
2023/09/22 10:12:40;;;;;;;2.90;1.80;;;19.90;99.90;;;;;;4975482;28;20074;-82
2023/09/22 10:15:07;;;;;;;3.22;1.80;;;19.20;99.90;;;;;;4975255;28;20052;-84
2023/09/22 10:17:33;;;;;;;2.92;1.60;;;19.20;99.90;;;;;;4992508;28;20124;-83
2023/09/22 10:20:06;;;;;;;4.70;1.85;;;19.70;99.90;;;;;;4992685;28;20085;-84
2023/09/22 10:22:35;;;;;;;2.42;1.50;;;19.10;99.90;;;;;;4975466;28;20129;-86
2023/09/22 10:25:13;;;;;;;2.70;1.30;;;18.60;99.90;;;;;;4975164;28;20046;-82
2023/09/22 10:27:59;;;;;;;4.13;1.83;;;17.90;99.90;;;;;;4976209;28;20054;-88
2023/09/22 10:30:43;;;;;;;4.13;2.30;;;17.40;99.90;;;;;;4975094;28;20469;-78
2023/09/22 10:33:27;;;;;;;4.60;2.25;;;17.10;99.90;;;;;;4975254;28;20394;-82
2023/09/22 10:35:55;;;;;;;5.10;2.30;;;16.90;99.90;;;;;;4974379;28;20053;-81
2023/09/22 10:38:21;;;;;;;3.10;2.17;;;17.10;99.90;;;;;;4974673;28;20084;-83
2023/09/22 10:41:07;;;;;;;6.82;2.53;;;17.80;99.90;;;;;;4975269;28;20077;-82
2023/09/22 10:43:33;;;;;;;4.90;2.80;;;18.10;99.90;;;;;;4975249;28;20063;-81
2023/09/22 10:45:59;;;;;;;4.07;2.10;;;17.90;99.90;;;;;;4974085;28;20308;-81
2023/09/22 10:48:34;;;;;;;4.85;3.08;;;17.40;99.90;;;;;;4975555;28;20437;-80
2023/09/22 10:51:01;;;;;;;5.30;2.70;;;17.10;99.90;;;;;;4974046;28;20494;-82
2023/09/22 10:53:26;;;;;;;3.95;2.70;;;17.00;99.90;;;;;;4976702;28;20050;-83
2023/09/22 10:55:58;;;;;;;5.28;2.80;;;16.70;99.90;;;;;;4977811;28;20054;-81
2023/09/22 10:58:26;;;;;;;2.65;2.05;;;16.60;99.90;;;;;;4978364;28;20109;-79
2023/09/22 11:00:55;;;;;;;4.25;2.42;;;16.90;99.90;;;;;;4978390;28;20532;-78
2023/09/22 11:03:20;;;;;;;4.40;2.30;;;17.00;99.90;;;;;;4995167;28;20047;-80
2023/09/22 11:05:59;;;;;;;4.43;2.45;;;16.90;99.90;;;;;;4978167;28;20058;-79
2023/09/22 11:08:24;;;;;;;3.30;2.10;;;16.80;99.90;;;;;;4978363;28;20141;-76
2023/09/22 11:10:52;;;;;;;4.22;1.98;;;16.80;99.90;;;;;;4977811;28;20137;-75
2023/09/22 11:13:19;;;;;;;2.58;1.50;;;16.70;99.90;;;;;;4977724;28;20038;-75
2023/09/22 11:15:49;;;;;;;2.22;1.45;;;16.70;99.90;;;;;;4978749;28;20089;-75
2023/09/22 11:18:33;;;;;;;3.85;2.10;;;16.60;99.90;;;;;;4978719;28;20043;-75
2023/09/22 11:21:04;;;;;;;3.95;2.30;;;18.10;99.90;;;;;;4977293;28;20051;-74
2023/09/22 11:23:31;;;;;;;4.88;2.42;;;16.60;99.90;;;;;;4978425;28;20058;-76
2023/09/22 11:25:58;;;;;;;3.28;2.30;;;16.50;99.90;;;;;;4978355;28;20057;-76
2023/09/22 11:28:24;;;;;;;3.40;2.70;;;16.70;99.90;;;;;;4978322;28;20513;-76
2023/09/22 11:30:51;;;;;;;4.00;2.83;;;17.00;99.90;;;;;;4977979;28;20032;-77
2023/09/22 11:33:16;;;;;;;3.85;2.35;;;17.60;99.90;;;;;;4977416;28;20050;-76
2023/09/22 11:35:42;;;;;;;4.18;3.00;;;18.20;99.90;;;;;;4978434;28;20050;-77
2023/09/22 11:38:31;;;;;;;4.38;2.40;;;18.50;99.90;;;;;;4977327;28;20445;-77
2023/09/22 11:41:16;;;;;;;3.53;2.42;;;18.50;99.90;;;;;;4972997;28;20047;-77
2023/09/22 11:43:45;;;;;;;4.00;1.90;;;18.30;99.90;;;;;;4974702;28;20047;-77
2023/09/22 11:46:28;;;;;;;4.00;1.90;;;18.80;99.90;;;;;;4974652;28;20047;-77
2023/09/22 11:49:02;;;;;;;2.83;2.05;;;19.40;99.90;;;;;;4976754;28;20046;-76
2023/09/22 11:51:40;;;;;;;4.93;2.40;;;19.40;99.90;;;;;;4978149;28;20046;-76
2023/09/22 11:54:10;;;;;;;3.15;2.08;;;19.30;99.90;;;;;;4977782;28;20975;-76
2023/09/22 11:56:36;;;;;;;4.30;2.30;;;18.60;99.90;;;;;;4977765;28;20520;-77
2023/09/22 11:59:20;;;;;;;4.55;3.30;;;18.00;99.90;;;;;;4977019;28;20042;-76
2023/09/22 12:01:48;;;;;;;2.60;1.80;;;17.60;99.90;;;;;;4976847;28;20050;-76
2023/09/22 12:04:22;;;;;;;5.47;1.40;;;17.10;99.90;;;;;;4977272;28;20081;-75
2023/09/22 12:06:52;;;;;;;3.88;2.00;;;16.70;99.90;;;;;;4977222;28;20038;-76
2023/09/22 12:09:21;;;;;;;4.35;2.10;;;16.60;99.90;;;;;;4994484;28;20081;-75
2023/09/22 12:11:50;;;;;;;4.50;1.80;;;16.90;99.90;;;;;;4977127;28;20117;-78
2023/09/22 12:14:16;;;;;;;3.50;2.10;;;17.60;99.90;;;;;;4977421;28;20046;-78
2023/09/22 12:16:42;;;;;;;5.10;2.28;;;18.10;99.90;;;;;;4993601;28;20042;-77
2023/09/22 12:19:08;;;;;;;3.63;1.90;;;18.80;99.90;;;;;;4976388;28;20096;-77
2023/09/22 12:21:34;;;;;;;3.63;1.58;;;20.00;99.90;;;;;;4977256;28;20073;-77
2023/09/22 12:24:00;;;;;;;3.70;1.40;;;20.80;99.90;;;;;;4993804;28;20050;-77
2023/09/22 12:26:25;;;;;;;4.78;1.50;;;20.90;99.90;;;;;;4995026;28;20081;-77
2023/09/22 12:28:51;;;;;;;2.65;1.42;;;20.40;99.90;;;;;;4977019;28;20410;-77
2023/09/22 12:31:18;;;;;;;3.00;1.40;;;19.70;99.90;;;;;;4976165;28;20378;-77
2023/09/22 12:33:45;;;;;;;1.92;1.00;;;19.00;99.90;;;;;;4976240;28;20042;-78
2023/09/22 12:36:15;;;;;;;3.17;1.00;;;18.50;99.90;;;;;;4994551;28;20057;-79
2023/09/22 12:38:41;;;;;;;2.05;0.95;;;18.30;99.90;;;;;;4976508;28;20088;-79
2023/09/22 12:41:08;;;;;;;3.50;1.02;;;19.00;99.90;;;;;;4994148;28;20844;-80
2023/09/22 12:43:33;;;;;;;2.67;1.00;;;20.00;99.90;;;;;;4975891;28;20493;-72
2023/09/22 12:45:59;;;;;;;1.90;0.65;;;21.20;99.90;;;;;;4993769;28;20125;-71